Terminal Aerodrome Forecast
Issued by NWS

Home | Current Version | Previous Version | Text Only | Print | Product List | Glossary On
Versions: 1 2 3 4 5 6 7 8 9 10 11 12 13 14
687
FTUS42 KMLB 071720
TAFLEE
TAF
KLEE 071720Z 0718/0818 34006KT P6SM FEW028
     FM080000 VRB03KT P6SM FEW250
     FM080900 VRB03KT 3SM BR SCT008
     FM081500 34007KT P6SM FEW060 SCT250=

USA.gov is the U.S. government's official web portal to all federal, state and local government web resources and services.